Time;durP1;ratioP1;P1;durP2;ratioP2;P2;SDS_P1;SDS_P2;PMS_P1;PMS_P2;Temp;Humidity;BMP_temperature;BMP_pressure;BME280_temperature;BME280_humidity;BME280_pressure;Samples;Min_cycle;Max_cycle;Signal;HPM_P1;HPM_P2
2022/06/04 00:00:52;;;;;;;0.40;0.40;;;16.00;99.90;;;;;;5073752;28;20025;-73
2022/06/04 00:03:19;;;;;;;0.32;0.25;;;16.10;99.90;;;;;;5056176;28;20385;-73
2022/06/04 00:05:47;;;;;;;0.00;0.00;;;16.10;99.90;;;;;;5072610;28;20051;-73
2022/06/04 00:08:14;;;;;;;0.00;0.00;;;16.10;99.90;;;;;;5073846;28;20052;-73
2022/06/04 00:16:17;;;;;;;0.00;0.00;;;16.40;99.90;;;;;;5085674;28;20027;-73
2022/06/04 00:18:43;;;;;;;0.00;0.00;;;16.40;99.90;;;;;;5072549;28;20062;-73
2022/06/04 00:21:10;;;;;;;0.00;0.00;;;16.40;99.90;;;;;;5076180;28;20456;-73
2022/06/04 00:23:36;;;;;;;0.00;0.00;;;16.50;99.90;;;;;;5081992;28;20271;-71
2022/06/04 00:26:07;;;;;;;0.10;0.10;;;16.50;99.90;;;;;;5079326;28;20437;-73
2022/06/04 00:28:33;;;;;;;0.00;0.00;;;16.60;99.90;;;;;;5084652;28;20457;-73
2022/06/04 00:30:59;;;;;;;0.10;0.10;;;16.60;99.90;;;;;;5076849;28;20060;-73
2022/06/04 00:33:26;;;;;;;0.00;0.00;;;16.80;99.90;;;;;;5081479;28;20017;-73
2022/06/04 00:35:55;;;;;;;3.33;1.35;;;16.80;99.90;;;;;;5080354;28;20330;-72
2022/06/04 00:38:24;;;;;;;1.85;1.75;;;16.80;99.90;;;;;;5078983;28;20028;-73
2022/06/04 00:41:23;;;;;;;2.05;0.65;;;17.00;99.90;;;;;;5075937;28;20021;-72
2022/06/04 00:43:56;;;;;;;0.00;0.00;;;17.10;99.90;;;;;;5071848;28;20024;-72
2022/06/04 00:46:31;;;;;;;3.75;2.20;;;17.00;99.90;;;;;;5077831;28;20063;-72
2022/06/04 00:48:57;;;;;;;0.00;0.00;;;16.80;99.90;;;;;;5078866;28;20033;-71
2022/06/04 00:51:25;;;;;;;0.00;0.00;;;16.80;99.90;;;;;;5075938;28;20029;-72
2022/06/04 00:53:51;;;;;;;1.27;0.73;;;16.80;99.90;;;;;;5064617;28;20031;-73
2022/06/04 00:56:45;;;;;;;3.22;1.65;;;16.70;99.90;;;;;;5066299;28;20024;-72
2022/06/04 00:59:30;;;;;;;0.50;0.50;;;16.70;99.90;;;;;;5079175;28;20028;-73
2022/06/04 01:02:30;;;;;;;0.47;0.47;;;16.80;99.90;;;;;;5076561;28;20407;-74
2022/06/04 01:04:58;;;;;;;5.50;1.83;;;16.90;99.90;;;;;;5075219;28;20457;-72
2022/06/04 01:08:02;;;;;;;0.00;0.00;;;16.90;99.90;;;;;;5074989;28;20034;-73
2022/06/04 01:10:44;;;;;;;11.63;2.40;;;16.90;99.90;;;;;;5065087;28;20049;-73
2022/06/04 01:13:35;;;;;;;2.00;1.17;;;16.90;99.90;;;;;;5071749;28;20029;-73
2022/06/04 01:16:17;;;;;;;3.75;2.28;;;17.00;99.90;;;;;;5069538;28;20020;-72
2022/06/04 01:18:54;;;;;;;6.75;2.78;;;17.00;99.90;;;;;;5072328;28;20044;-72
2022/06/04 01:21:55;;;;;;;2.15;1.98;;;17.50;99.90;;;;;;5075493;28;20029;-73
2022/06/04 01:24:35;;;;;;;0.65;0.55;;;18.20;99.90;;;;;;5062265;28;20041;-73
2022/06/04 01:27:14;;;;;;;0.25;0.15;;;19.00;99.90;;;;;;5075155;28;20398;-73
2022/06/04 01:29:55;;;;;;;0.10;0.10;;;19.50;99.90;;;;;;5076809;28;20057;-71
2022/06/04 01:32:33;;;;;;;7.38;6.47;;;19.80;99.90;;;;;;5092155;28;20024;-72
2022/06/04 01:35:23;;;;;;;0.00;0.00;;;19.30;99.90;;;;;;5092562;28;20066;-72
2022/06/04 01:37:59;;;;;;;0.35;0.35;;;19.20;99.90;;;;;;5073935;28;20048;-72
2022/06/04 01:43:20;;;;;;;0.00;0.00;;;19.50;99.90;;;;;;5085819;28;20030;-73
2022/06/04 01:45:49;;;;;;;0.00;0.00;;;19.90;99.90;;;;;;5078864;28;20052;-72
2022/06/04 01:48:16;;;;;;;0.10;0.10;;;20.60;99.90;;;;;;5080136;28;20078;-72
2022/06/04 01:50:48;;;;;;;0.00;0.00;;;21.20;99.90;;;;;;5080483;28;20404;-73
2022/06/04 01:53:17;;;;;;;0.00;0.00;;;21.10;99.90;;;;;;5078828;28;20173;-73
2022/06/04 01:55:58;;;;;;;0.20;0.20;;;20.50;99.90;;;;;;5077882;28;20031;-73
2022/06/04 01:58:48;;;;;;;0.00;0.00;;;20.00;99.90;;;;;;5081724;28;20032;-73
2022/06/04 02:01:19;;;;;;;3.25;0.90;;;19.90;99.90;;;;;;5085904;28;20032;-73
2022/06/04 02:03:56;;;;;;;3.13;1.35;;;19.50;99.90;;;;;;5080567;28;20052;-73
2022/06/04 02:06:28;;;;;;;2.72;0.82;;;19.00;99.90;;;;;;5082461;28;20032;-73
2022/06/04 02:08:57;;;;;;;0.17;0.17;;;19.20;99.90;;;;;;5084204;28;20423;-72
2022/06/04 02:11:25;;;;;;;0.98;0.65;;;19.80;99.90;;;;;;5085307;28;20048;-72
2022/06/04 02:13:55;;;;;;;2.10;1.02;;;20.10;99.90;;;;;;5084543;28;20479;-73
2022/06/04 02:16:46;;;;;;;0.73;0.65;;;19.70;99.90;;;;;;5081163;28;20050;-72
2022/06/04 02:19:12;;;;;;;1.17;0.98;;;19.10;99.90;;;;;;5084930;28;20024;-73
2022/06/04 02:21:39;;;;;;;1.35;0.93;;;19.10;99.90;;;;;;5083233;28;20031;-73
2022/06/04 02:24:06;;;;;;;2.33;0.85;;;19.20;99.90;;;;;;5066461;28;20025;-73
2022/06/04 02:26:33;;;;;;;0.35;0.30;;;18.80;99.90;;;;;;5084219;28;20472;-73
2022/06/04 02:29:01;;;;;;;1.60;1.10;;;19.00;99.90;;;;;;5075746;28;20500;-73
2022/06/04 02:31:47;;;;;;;0.65;0.40;;;19.40;99.90;;;;;;5084270;28;20021;-73
2022/06/04 02:34:27;;;;;;;1.52;1.17;;;19.60;99.90;;;;;;5074266;28;20020;-73
2022/06/04 02:37:14;;;;;;;0.75;0.57;;;19.40;99.90;;;;;;5075487;28;20025;-73
2022/06/04 02:39:43;;;;;;;0.70;0.60;;;19.40;99.90;;;;;;5039360;28;20474;-72
2022/06/04 02:42:24;;;;;;;2.40;0.73;;;19.50;99.90;;;;;;5075045;28;20028;-73
2022/06/04 02:44:57;;;;;;;0.22;0.10;;;19.50;99.90;;;;;;5075936;28;20029;-73
2022/06/04 02:47:35;;;;;;;0.00;0.00;;;19.20;99.90;;;;;;5075112;28;20027;-73
2022/06/04 02:50:13;;;;;;;0.17;0.17;;;19.30;99.90;;;;;;5073053;28;20473;-73
2022/06/04 02:52:40;;;;;;;5.40;1.63;;;19.50;99.90;;;;;;5075032;28;20033;-73
2022/06/04 02:55:12;;;;;;;0.08;0.03;;;19.50;99.90;;;;;;5075717;28;20104;-73
2022/06/04 02:57:42;;;;;;;0.17;0.10;;;19.30;99.90;;;;;;5075297;28;20036;-73
2022/06/04 03:00:11;;;;;;;0.10;0.10;;;19.60;99.90;;;;;;5070460;28;20040;-74
2022/06/04 03:02:37;;;;;;;0.05;0.05;;;19.80;99.90;;;;;;5067394;28;20027;-73
2022/06/04 03:05:16;;;;;;;0.57;0.57;;;19.90;99.90;;;;;;5074778;28;20021;-73
2022/06/04 03:07:46;;;;;;;1.33;0.60;;;20.10;99.90;;;;;;5071709;28;20023;-74
2022/06/04 03:10:21;;;;;;;0.10;0.10;;;20.60;99.90;;;;;;5068109;28;20064;-73
2022/06/04 03:12:47;;;;;;;0.00;0.00;;;20.90;99.90;;;;;;5063116;28;20025;-73
2022/06/04 03:15:15;;;;;;;0.63;0.63;;;20.90;99.90;;;;;;5066316;28;20047;-71
2022/06/04 03:17:43;;;;;;;0.00;0.00;;;21.30;99.90;;;;;;5072734;28;20477;-72
2022/06/04 03:20:11;;;;;;;0.30;0.30;;;21.90;99.90;;;;;;5073973;28;20036;-72
2022/06/04 03:22:37;;;;;;;5.70;0.85;;;22.80;99.90;;;;;;5073797;28;20500;-73
2022/06/04 03:25:04;;;;;;;0.57;0.57;;;22.70;99.90;;;;;;5074405;28;20024;-73
2022/06/04 03:27:30;;;;;;;0.00;0.00;;;22.80;97.50;;;;;;5080154;28;20027;-73
2022/06/04 03:29:56;;;;;;;1.02;0.75;;;22.60;98.90;;;;;;5079798;28;20027;-73
2022/06/04 03:32:22;;;;;;;0.00;0.00;;;22.70;98.90;;;;;;5081366;28;20031;-73
2022/06/04 03:34:49;;;;;;;0.00;0.00;;;23.00;98.00;;;;;;5084498;28;20026;-73
2022/06/04 03:37:15;;;;;;;0.00;0.00;;;23.60;92.60;;;;;;5065072;28;20483;-73
2022/06/04 03:39:41;;;;;;;0.80;0.80;;;23.80;90.10;;;;;;5081676;28;20046;-73
2022/06/04 03:42:07;;;;;;;0.00;0.00;;;24.00;79.60;;;;;;5075207;28;20025;-73
2022/06/04 03:44:33;;;;;;;0.00;0.00;;;24.20;74.60;;;;;;5072133;28;20771;-73
2022/06/04 03:46:59;;;;;;;0.17;0.17;;;24.00;73.40;;;;;;5074048;28;20059;-73
2022/06/04 03:49:26;;;;;;;0.00;0.00;;;24.40;71.30;;;;;;5065725;28;20104;-73
2022/06/04 03:51:52;;;;;;;0.00;0.00;;;22.80;80.40;;;;;;5069120;28;20052;-73
2022/06/04 03:54:52;;;;;;;0.00;0.00;;;22.80;79.20;;;;;;5068533;28;20033;-73
2022/06/04 03:59:53;;;;;;;0.00;0.00;;;22.80;80.50;;;;;;5072905;28;20397;-73
2022/06/04 04:02:19;;;;;;;0.00;0.00;;;23.00;78.20;;;;;;5073184;28;20446;-74
2022/06/04 04:04:45;;;;;;;0.00;0.00;;;23.00;77.40;;;;;;5057466;28;20111;-72
2022/06/04 04:07:14;;;;;;;0.00;0.00;;;23.40;74.60;;;;;;5071410;28;20025;-73
2022/06/04 04:09:40;;;;;;;0.00;0.00;;;23.70;72.80;;;;;;5087664;28;20024;-73
2022/06/04 04:12:07;;;;;;;0.20;0.20;;;23.90;70.40;;;;;;5091869;28;20560;-73
2022/06/04 04:14:33;;;;;;;0.00;0.00;;;23.80;70.60;;;;;;5072269;28;20068;-73
2022/06/04 04:16:59;;;;;;;0.00;0.00;;;23.60;71.80;;;;;;5072792;28;20458;-73
2022/06/04 04:19:28;;;;;;;0.13;0.13;;;23.50;71.40;;;;;;5072507;28;20028;-74
2022/06/04 04:21:54;;;;;;;0.80;0.30;;;23.10;73.40;;;;;;5072478;28;20037;-74
2022/06/04 04:24:20;;;;;;;0.00;0.00;;;23.00;74.40;;;;;;5072112;28;20028;-73
2022/06/04 04:26:46;;;;;;;0.00;0.00;;;23.20;73.40;;;;;;5072284;28;20059;-74
2022/06/04 04:29:12;;;;;;;0.00;0.00;;;23.50;71.00;;;;;;5073554;28;20415;-73
2022/06/04 04:31:38;;;;;;;2.25;0.70;;;23.60;69.00;;;;;;5074443;28;20123;-75
2022/06/04 04:34:05;;;;;;;0.10;0.10;;;23.60;66.40;;;;;;5080748;28;20024;-73
2022/06/04 04:36:32;;;;;;;0.00;0.00;;;23.20;68.00;;;;;;5082066;28;20024;-73
2022/06/04 04:38:58;;;;;;;0.10;0.10;;;23.10;67.80;;;;;;5079316;28;20476;-73
2022/06/04 04:41:24;;;;;;;0.00;0.00;;;22.90;69.40;;;;;;5081945;28;20488;-73
2022/06/04 04:43:51;;;;;;;11.77;5.00;;;22.80;71.70;;;;;;5078884;28;20472;-74
2022/06/04 04:46:18;;;;;;;0.17;0.17;;;22.40;73.30;;;;;;5077062;28;20017;-72
2022/06/04 04:48:46;;;;;;;0.00;0.00;;;22.70;74.60;;;;;;5079790;28;20016;-74
2022/06/04 04:51:19;;;;;;;15.13;4.30;;;22.60;71.70;;;;;;5080634;28;20024;-73
2022/06/04 04:53:47;;;;;;;0.20;0.20;;;22.60;70.40;;;;;;5077663;28;20103;-74
2022/06/04 04:56:24;;;;;;;0.00;0.00;;;22.40;72.00;;;;;;5075851;28;20487;-75
2022/06/04 04:58:50;;;;;;;0.10;0.10;;;22.60;71.20;;;;;;5077598;28;20361;-74
2022/06/04 05:01:19;;;;;;;0.00;0.00;;;22.70;67.30;;;;;;5073925;28;20020;-74
2022/06/04 05:03:45;;;;;;;1.90;1.80;;;22.80;69.10;;;;;;5077240;28;20071;-74
2022/06/04 05:06:13;;;;;;;0.00;0.00;;;23.00;68.30;;;;;;5059380;28;20028;-74
2022/06/04 05:08:39;;;;;;;0.00;0.00;;;23.10;66.70;;;;;;5074846;28;20024;-74
2022/06/04 05:11:11;;;;;;;0.10;0.10;;;23.20;67.20;;;;;;5078539;28;20049;-74
2022/06/04 05:13:37;;;;;;;0.00;0.00;;;23.30;69.10;;;;;;5083492;28;20479;-75
2022/06/04 05:16:04;;;;;;;0.10;0.10;;;23.50;70.90;;;;;;5081173;28;20364;-74
2022/06/04 05:18:30;;;;;;;0.90;0.20;;;23.20;69.90;;;;;;5080667;28;20566;-75
2022/06/04 05:21:26;;;;;;;0.00;0.00;;;23.00;68.40;;;;;;5077377;28;20024;-73
2022/06/04 05:23:56;;;;;;;2.08;1.98;;;22.80;69.60;;;;;;5075221;28;20028;-73
2022/06/04 05:26:32;;;;;;;0.00;0.00;;;22.40;70.70;;;;;;5070501;28;20031;-73
2022/06/04 05:28:58;;;;;;;3.55;1.35;;;22.60;72.10;;;;;;5075438;28;20028;-74
2022/06/04 05:31:24;;;;;;;0.43;0.20;;;22.50;70.10;;;;;;5074574;28;20341;-75
2022/06/04 05:33:50;;;;;;;0.08;0.00;;;22.70;70.10;;;;;;5079232;28;20368;-74
2022/06/04 05:36:16;;;;;;;0.00;0.00;;;22.50;71.30;;;;;;5080504;28;20082;-74
2022/06/04 05:38:43;;;;;;;0.05;0.05;;;22.60;72.70;;;;;;5079745;28;20070;-75
2022/06/04 05:41:13;;;;;;;0.00;0.00;;;22.70;72.70;;;;;;5077574;28;20368;-74
2022/06/04 05:43:39;;;;;;;0.03;0.03;;;22.70;75.00;;;;;;5080214;28;20104;-74
2022/06/04 05:46:09;;;;;;;0.00;0.00;;;22.60;74.00;;;;;;5078430;28;20020;-74
2022/06/04 05:48:40;;;;;;;0.00;0.00;;;22.70;70.60;;;;;;5072815;28;20025;-74
2022/06/04 05:51:10;;;;;;;0.10;0.05;;;23.10;63.70;;;;;;5072824;28;20111;-74
2022/06/04 05:53:36;;;;;;;0.00;0.00;;;22.60;61.20;;;;;;5079478;28;20013;-74
2022/06/04 05:56:02;;;;;;;0.32;0.20;;;22.50;60.20;;;;;;5079424;28;20077;-74
2022/06/04 05:58:28;;;;;;;0.10;0.10;;;22.50;60.20;;;;;;5071170;28;20027;-74
2022/06/04 06:01:01;;;;;;;0.30;0.20;;;22.30;63.20;;;;;;5077390;28;20032;-74
2022/06/04 06:03:27;;;;;;;0.03;0.00;;;22.30;63.80;;;;;;5069294;28;20035;-74
2022/06/04 06:05:53;;;;;;;0.00;0.00;;;22.40;61.70;;;;;;5068505;28;20028;-74
2022/06/04 06:08:19;;;;;;;1.08;1.08;;;22.60;62.80;;;;;;5079305;28;20032;-74
2022/06/04 06:10:45;;;;;;;0.00;0.00;;;22.80;61.50;;;;;;5072849;28;20052;-74
2022/06/04 06:13:12;;;;;;;0.00;0.00;;;22.90;60.00;;;;;;5070688;28;20025;-74
2022/06/04 06:15:38;;;;;;;0.00;0.00;;;22.70;61.00;;;;;;5075371;28;20072;-74
2022/06/04 06:18:06;;;;;;;0.00;0.00;;;22.70;59.60;;;;;;5073140;28;20035;-74
2022/06/04 06:20:33;;;;;;;0.00;0.00;;;22.60;59.50;;;;;;5073142;28;20029;-74
2022/06/04 06:22:59;;;;;;;0.17;0.10;;;22.70;60.10;;;;;;5073566;28;20645;-75
2022/06/04 06:25:25;;;;;;;0.08;0.08;;;22.80;59.50;;;;;;5065978;28;20024;-72
2022/06/04 06:27:52;;;;;;;0.00;0.00;;;22.90;59.10;;;;;;5072663;28;20028;-74
2022/06/04 06:30:19;;;;;;;0.03;0.00;;;22.70;58.10;;;;;;5074350;28;20464;-75
2022/06/04 06:32:46;;;;;;;0.00;0.00;;;22.60;59.10;;;;;;5072230;28;20060;-74
2022/06/04 06:35:12;;;;;;;0.70;0.20;;;22.60;62.40;;;;;;5072710;28;20077;-74
2022/06/04 06:37:38;;;;;;;0.38;0.17;;;22.50;61.70;;;;;;5069259;28;20112;-73
2022/06/04 06:40:05;;;;;;;0.00;0.00;;;22.70;62.10;;;;;;5064557;28;21243;-73
2022/06/04 06:42:31;;;;;;;0.75;0.75;;;22.50;62.90;;;;;;5070878;28;20461;-72
2022/06/04 06:44:57;;;;;;;0.38;0.28;;;22.70;58.90;;;;;;5082537;28;20028;-75
2022/06/04 06:47:23;;;;;;;0.20;0.20;;;23.10;59.00;;;;;;5081560;28;20020;-74
2022/06/04 06:49:50;;;;;;;0.60;0.60;;;23.40;59.90;;;;;;5085981;28;20024;-75
2022/06/04 06:52:16;;;;;;;0.00;0.00;;;23.40;60.20;;;;;;5073571;28;20025;-73
2022/06/04 06:54:43;;;;;;;0.00;0.00;;;23.60;58.80;;;;;;5069753;28;20069;-73
2022/06/04 06:57:11;;;;;;;0.00;0.00;;;23.50;59.10;;;;;;5073936;28;21042;-76
2022/06/04 06:59:43;;;;;;;0.00;0.00;;;23.70;57.50;;;;;;5078284;28;20081;-74
2022/06/04 07:02:10;;;;;;;0.00;0.00;;;23.90;56.80;;;;;;5072801;28;20059;-75
2022/06/04 07:04:36;;;;;;;0.00;0.00;;;23.90;56.60;;;;;;5068577;28;20054;-75
2022/06/04 07:07:03;;;;;;;0.00;0.00;;;23.90;57.00;;;;;;5074798;28;20075;-74
2022/06/04 07:09:32;;;;;;;0.00;0.00;;;23.60;57.40;;;;;;5080412;28;20081;-74
2022/06/04 07:11:59;;;;;;;0.00;0.00;;;23.80;57.70;;;;;;5083900;28;20434;-75
2022/06/04 07:14:25;;;;;;;0.00;0.00;;;23.80;58.50;;;;;;5075918;28;20029;-75
2022/06/04 07:16:53;;;;;;;0.25;0.25;;;23.90;57.10;;;;;;5076524;28;20028;-74
2022/06/04 07:19:21;;;;;;;0.10;0.10;;;23.70;56.80;;;;;;5073877;28;20020;-75
2022/06/04 07:21:48;;;;;;;0.00;0.00;;;24.00;55.50;;;;;;5079972;28;20031;-74
2022/06/04 07:24:14;;;;;;;0.00;0.00;;;24.00;54.40;;;;;;5077840;28;20021;-75
2022/06/04 07:26:41;;;;;;;0.30;0.25;;;23.80;56.60;;;;;;5072951;28;20017;-73
2022/06/04 07:29:09;;;;;;;0.73;0.65;;;23.50;56.80;;;;;;5073517;28;20031;-73
2022/06/04 07:31:36;;;;;;;0.00;0.00;;;23.60;58.60;;;;;;5070059;28;20162;-73
2022/06/04 07:34:02;;;;;;;0.13;0.03;;;24.00;57.00;;;;;;5070541;28;20649;-73
2022/06/04 07:36:32;;;;;;;0.25;0.25;;;24.00;57.60;;;;;;5070799;28;20029;-72
2022/06/04 07:39:01;;;;;;;0.00;0.00;;;24.30;57.20;;;;;;5073177;28;20067;-74
2022/06/04 07:41:30;;;;;;;0.10;0.10;;;24.50;56.10;;;;;;5064548;28;20107;-74
2022/06/04 07:43:59;;;;;;;0.47;0.15;;;24.60;54.60;;;;;;5071274;28;20420;-74
2022/06/04 07:46:27;;;;;;;0.00;0.00;;;24.40;54.30;;;;;;5073586;28;20025;-74
2022/06/04 07:49:00;;;;;;;0.17;0.17;;;24.40;54.70;;;;;;5073251;28;20029;-74
2022/06/04 07:51:27;;;;;;;0.00;0.00;;;24.80;52.70;;;;;;5069565;28;20036;-74
2022/06/04 07:53:53;;;;;;;0.00;0.00;;;24.90;51.20;;;;;;5073828;28;20510;-74
2022/06/04 07:56:20;;;;;;;0.00;0.00;;;25.10;51.70;;;;;;5074564;28;20020;-73
2022/06/04 07:58:47;;;;;;;0.98;0.35;;;25.00;51.60;;;;;;5070513;28;20029;-73
2022/06/04 08:01:15;;;;;;;0.00;0.00;;;24.60;52.60;;;;;;5073668;28;20349;-75
2022/06/04 08:03:44;;;;;;;0.30;0.30;;;24.40;54.30;;;;;;5068659;28;20020;-73
2022/06/04 08:06:13;;;;;;;0.00;0.00;;;23.60;55.10;;;;;;5078545;28;20566;-74
2022/06/04 08:08:40;;;;;;;0.20;0.20;;;23.60;56.30;;;;;;5075492;28;20020;-74
2022/06/04 08:13:52;;;;;;;1.38;0.10;;;24.10;54.60;;;;;;5072726;28;20075;-74
2022/06/04 08:16:27;;;;;;;0.10;0.10;;;24.40;52.70;;;;;;5079110;28;20043;-73
2022/06/04 08:18:53;;;;;;;0.00;0.00;;;24.40;51.70;;;;;;5061578;28;20043;-73
2022/06/04 08:21:19;;;;;;;0.00;0.00;;;24.60;51.80;;;;;;5081075;28;20443;-73
2022/06/04 08:23:45;;;;;;;0.00;0.00;;;24.70;52.80;;;;;;5071692;28;20033;-74
2022/06/04 08:26:12;;;;;;;0.00;0.00;;;24.70;51.80;;;;;;5067039;28;20105;-75
2022/06/04 08:28:38;;;;;;;0.10;0.10;;;25.00;53.10;;;;;;5065197;28;20020;-75
2022/06/04 08:31:08;;;;;;;0.00;0.00;;;24.60;51.20;;;;;;5072823;28;20516;-74
2022/06/04 08:33:36;;;;;;;0.00;0.00;;;24.20;52.00;;;;;;5069946;28;20082;-73
2022/06/04 08:36:03;;;;;;;0.05;0.05;;;24.40;53.30;;;;;;5066309;28;20064;-74
2022/06/04 08:38:29;;;;;;;0.00;0.00;;;24.60;52.40;;;;;;5076669;28;20112;-73
2022/06/04 08:40:59;;;;;;;0.30;0.30;;;25.00;52.30;;;;;;5075928;28;20108;-73
2022/06/04 08:43:47;;;;;;;0.00;0.00;;;25.50;51.50;;;;;;5068845;28;20372;-75
2022/06/04 08:46:50;;;;;;;0.00;0.00;;;25.90;49.30;;;;;;5064423;28;20039;-75
2022/06/04 08:49:32;;;;;;;0.10;0.10;;;25.30;48.80;;;;;;4997481;28;20078;-75
2022/06/04 08:52:02;;;;;;;0.10;0.10;;;24.40;50.40;;;;;;5070378;28;20074;-74
2022/06/04 08:57:33;;;;;;;0.35;0.35;;;24.00;50.80;;;;;;5068879;28;20137;-74
2022/06/04 09:00:11;;;;;;;0.10;0.10;;;24.00;51.10;;;;;;5067829;28;20032;-74
2022/06/04 09:03:19;;;;;;;8.00;7.57;;;24.20;51.30;;;;;;5051792;28;20393;-74
2022/06/04 09:05:59;;;;;;;0.00;0.00;;;24.50;50.50;;;;;;5033965;28;20024;-74
2022/06/04 09:09:01;;;;;;;1.20;0.10;;;24.80;48.10;;;;;;5073654;28;20427;-75
2022/06/04 09:11:56;;;;;;;0.00;0.00;;;24.80;49.80;;;;;;5069017;28;20048;-73
2022/06/04 09:14:31;;;;;;;0.00;0.00;;;25.30;49.70;;;;;;5061385;28;20031;-73
2022/06/04 09:17:13;;;;;;;0.00;0.00;;;25.20;49.40;;;;;;5067348;28;20020;-74
2022/06/04 09:19:43;;;;;;;0.00;0.00;;;25.10;48.90;;;;;;5058651;28;20036;-72
2022/06/04 09:22:19;;;;;;;0.03;0.03;;;24.80;50.00;;;;;;5064584;28;20020;-74
2022/06/04 09:24:46;;;;;;;2.17;0.43;;;24.70;50.60;;;;;;5069126;28;20376;-74
2022/06/04 09:27:42;;;;;;;0.00;0.00;;;24.40;49.50;;;;;;5067363;28;20017;-73
2022/06/04 09:30:23;;;;;;;0.25;0.08;;;24.20;49.50;;;;;;5044284;28;20036;-75
2022/06/04 09:33:14;;;;;;;0.35;0.30;;;24.40;49.60;;;;;;5064738;28;20024;-73
2022/06/04 09:35:41;;;;;;;0.10;0.00;;;24.40;49.60;;;;;;5064290;28;20723;-73
2022/06/04 09:38:24;;;;;;;3.10;1.75;;;24.80;49.60;;;;;;5071992;28;20377;-73
2022/06/04 09:41:18;;;;;;;0.00;0.00;;;25.00;49.20;;;;;;5078258;28;20507;-74
2022/06/04 09:44:04;;;;;;;0.00;0.00;;;25.20;48.40;;;;;;5071823;28;20020;-74
2022/06/04 09:46:30;;;;;;;0.75;0.75;;;25.10;48.80;;;;;;5071925;28;20024;-74
2022/06/04 09:48:58;;;;;;;0.00;0.00;;;25.20;48.90;;;;;;5065616;28;20021;-73
2022/06/04 09:51:29;;;;;;;0.32;0.32;;;25.40;48.50;;;;;;5067765;28;20056;-74
2022/06/04 09:54:05;;;;;;;0.00;0.00;;;25.10;48.70;;;;;;5075620;28;20032;-73
2022/06/04 09:56:41;;;;;;;0.30;0.17;;;24.80;49.40;;;;;;5074035;28;20580;-74
2022/06/04 09:59:20;;;;;;;0.00;0.00;;;24.60;48.90;;;;;;5075245;28;20163;-75
2022/06/04 10:02:16;;;;;;;0.00;0.00;;;24.70;50.90;;;;;;5069096;28;20020;-75
2022/06/04 10:04:48;;;;;;;0.17;0.05;;;24.80;49.80;;;;;;5072934;28;20500;-73
2022/06/04 10:07:20;;;;;;;0.80;0.80;;;24.60;50.40;;;;;;5072016;28;20085;-74
2022/06/04 10:09:57;;;;;;;0.38;0.10;;;24.50;50.50;;;;;;5072391;28;20029;-74
2022/06/04 10:15:32;;;;;;;0.00;0.00;;;24.10;51.10;;;;;;5067413;28;20271;-72
2022/06/04 10:18:02;;;;;;;0.00;0.00;;;24.10;51.10;;;;;;5072834;28;20093;-73
2022/06/04 10:20:29;;;;;;;0.00;0.00;;;24.50;50.70;;;;;;5070004;28;20044;-75
2022/06/04 10:22:55;;;;;;;0.65;0.38;;;24.60;50.30;;;;;;5070445;28;20016;-74
2022/06/04 10:25:28;;;;;;;0.00;0.00;;;24.60;50.20;;;;;;5067246;28;20568;-75
2022/06/04 10:28:10;;;;;;;0.43;0.25;;;24.10;50.90;;;;;;5068135;28;20032;-75
2022/06/04 10:30:50;;;;;;;0.00;0.00;;;23.70;51.80;;;;;;5077340;28;20074;-73
2022/06/04 10:33:34;;;;;;;0.00;0.00;;;23.70;52.30;;;;;;5073394;28;20618;-74
2022/06/04 10:36:26;;;;;;;0.22;0.22;;;23.90;52.50;;;;;;5072231;28;20381;-74
2022/06/04 10:39:10;;;;;;;0.00;0.00;;;24.20;51.60;;;;;;5069490;28;20066;-72
2022/06/04 10:42:17;;;;;;;2.30;0.28;;;24.40;50.10;;;;;;5071663;28;20612;-74
2022/06/04 10:45:17;;;;;;;1.52;1.42;;;24.40;50.80;;;;;;5061087;28;20433;-74
2022/06/04 10:48:04;;;;;;;0.00;0.00;;;24.70;50.60;;;;;;5069065;28;20025;-75
2022/06/04 10:54:14;;;;;;;0.00;0.00;;;24.70;51.70;;;;;;5049982;28;20090;-73
2022/06/04 10:56:56;;;;;;;0.00;0.00;;;24.80;50.50;;;;;;5073193;28;20091;-75
2022/06/04 10:59:34;;;;;;;0.00;0.00;;;24.60;51.00;;;;;;5072045;28;20477;-74
2022/06/04 11:02:21;;;;;;;0.00;0.00;;;24.10;51.10;;;;;;5068309;28;20020;-75
2022/06/04 11:04:59;;;;;;;0.00;0.00;;;24.30;51.80;;;;;;5068300;28;20031;-72
2022/06/04 11:07:57;;;;;;;0.00;0.00;;;24.70;50.90;;;;;;5066537;28;20477;-74
2022/06/04 11:10:37;;;;;;;1.10;1.10;;;24.80;49.50;;;;;;5049894;28;20060;-74
2022/06/04 11:13:06;;;;;;;0.28;0.10;;;25.00;50.70;;;;;;5070602;28;20055;-73
2022/06/04 11:15:38;;;;;;;0.00;0.00;;;25.10;48.80;;;;;;5065415;28;20021;-74
2022/06/04 11:18:16;;;;;;;0.00;0.00;;;24.90;49.30;;;;;;5065200;28;20033;-73
2022/06/04 11:20:58;;;;;;;0.00;0.00;;;24.70;49.30;;;;;;5064293;28;20358;-72
2022/06/04 11:23:48;;;;;;;0.13;0.10;;;24.40;49.50;;;;;;5068395;28;20048;-75
2022/06/04 11:26:40;;;;;;;0.00;0.00;;;24.60;49.40;;;;;;5069319;28;20086;-73
2022/06/04 11:29:09;;;;;;;0.00;0.00;;;24.80;49.40;;;;;;5069026;28;20039;-73
2022/06/04 11:31:52;;;;;;;0.00;0.00;;;25.00;49.20;;;;;;5077113;28;20020;-73
2022/06/04 11:34:50;;;;;;;0.00;0.00;;;25.10;48.90;;;;;;5068123;28;20148;-73
2022/06/04 11:37:19;;;;;;;5.82;5.22;;;25.40;47.20;;;;;;5063616;28;20064;-73
2022/06/04 11:40:15;;;;;;;0.08;0.08;;;25.40;48.00;;;;;;5065416;28;20046;-72
2022/06/04 11:42:48;;;;;;;0.00;0.00;;;25.30;47.40;;;;;;5078032;28;20050;-73
2022/06/04 11:45:30;;;;;;;0.00;0.00;;;25.30;45.90;;;;;;5076317;28;20078;-73
2022/06/04 11:48:16;;;;;;;0.00;0.00;;;25.60;45.40;;;;;;5073609;28;20027;-73
2022/06/04 11:50:47;;;;;;;0.00;0.00;;;25.50;45.70;;;;;;5065929;28;20520;-74
2022/06/04 11:53:22;;;;;;;0.00;0.00;;;25.30;45.50;;;;;;5076751;28;20051;-74
2022/06/04 11:56:02;;;;;;;0.00;0.00;;;25.40;45.10;;;;;;5071456;28;20028;-73
2022/06/04 11:58:46;;;;;;;0.00;0.00;;;25.50;45.50;;;;;;5067978;28;20028;-75
2022/06/04 12:01:23;;;;;;;0.10;0.05;;;25.30;44.40;;;;;;5064888;28;20028;-74
2022/06/04 12:03:55;;;;;;;0.00;0.00;;;25.40;45.10;;;;;;5065159;28;20035;-75
2022/06/04 12:06:24;;;;;;;0.00;0.00;;;25.10;44.60;;;;;;5044121;28;20373;-73
2022/06/04 12:09:15;;;;;;;0.00;0.00;;;24.90;44.80;;;;;;5047541;28;20407;-72
2022/06/04 12:12:13;;;;;;;0.00;0.00;;;24.60;45.50;;;;;;5066663;28;21221;-75
2022/06/04 12:15:03;;;;;;;0.00;0.00;;;24.50;46.00;;;;;;5063780;28;20083;-74
2022/06/04 12:17:52;;;;;;;0.00;0.00;;;24.70;45.60;;;;;;5067840;28;20021;-74
2022/06/04 12:26:41;;;;;;;0.00;0.00;;;24.50;45.70;;;;;;5063546;28;20060;-74
2022/06/04 12:29:31;;;;;;;0.00;0.00;;;24.40;45.90;;;;;;5076697;28;20028;-74
2022/06/04 12:32:06;;;;;;;0.00;0.00;;;24.50;45.20;;;;;;5074397;28;20027;-73
2022/06/04 12:34:37;;;;;;;0.00;0.00;;;24.50;45.10;;;;;;5073791;28;20290;-74
2022/06/04 12:37:24;;;;;;;0.00;0.00;;;24.30;45.20;;;;;;5066715;28;20036;-72
2022/06/04 12:39:50;;;;;;;0.00;0.00;;;24.10;45.70;;;;;;5070431;28;20492;-73
2022/06/04 12:42:20;;;;;;;0.00;0.00;;;24.00;46.80;;;;;;5068422;28;20036;-73
2022/06/04 12:45:05;;;;;;;0.00;0.00;;;24.00;46.80;;;;;;5061530;28;20017;-73
2022/06/04 12:47:37;;;;;;;0.00;0.00;;;24.00;46.90;;;;;;5063633;28;20017;-73
2022/06/04 12:50:24;;;;;;;0.00;0.00;;;24.00;46.10;;;;;;5071839;28;20099;-73
2022/06/04 12:53:12;;;;;;;0.00;0.00;;;24.00;45.60;;;;;;5073430;28;20066;-74
2022/06/04 12:56:04;;;;;;;0.00;0.00;;;24.10;45.00;;;;;;5065309;28;20043;-73
2022/06/04 12:58:30;;;;;;;0.05;0.03;;;24.00;45.70;;;;;;5072431;28;20040;-73
2022/06/04 13:00:58;;;;;;;0.10;0.10;;;23.90;46.10;;;;;;5074243;28;20024;-74
2022/06/04 13:03:39;;;;;;;0.30;0.30;;;24.10;50.20;;;;;;5067604;28;20028;-73
2022/06/04 13:06:26;;;;;;;0.38;0.22;;;24.00;50.50;;;;;;5065041;28;20017;-72
2022/06/04 13:08:59;;;;;;;1.50;1.40;;;24.00;51.20;;;;;;5072042;28;20025;-72
2022/06/04 13:11:35;;;;;;;5.78;0.57;;;24.00;51.50;;;;;;5065729;28;20088;-74
2022/06/04 13:14:08;;;;;;;6.18;2.50;;;24.10;51.80;;;;;;5067075;28;20028;-74
2022/06/04 13:16:52;;;;;;;1.23;0.68;;;24.10;50.80;;;;;;5064601;28;20024;-73
2022/06/04 13:19:43;;;;;;;2.38;1.50;;;24.00;51.40;;;;;;5063150;28;20028;-75
2022/06/04 13:22:36;;;;;;;0.10;0.10;;;23.80;51.80;;;;;;5064537;28;20028;-74
2022/06/04 13:25:06;;;;;;;1.88;0.52;;;23.80;51.80;;;;;;5072473;28;20422;-74
2022/06/04 13:27:54;;;;;;;0.13;0.13;;;23.90;52.00;;;;;;5066365;28;20025;-73
2022/06/04 13:30:21;;;;;;;0.32;0.08;;;23.80;51.80;;;;;;5059860;28;20449;-73
2022/06/04 13:32:48;;;;;;;4.45;0.28;;;23.80;52.30;;;;;;5069152;28;20040;-73
2022/06/04 13:35:21;;;;;;;0.00;0.00;;;23.60;52.00;;;;;;5062789;28;20592;-73
2022/06/04 13:37:49;;;;;;;0.15;0.15;;;23.60;51.60;;;;;;5068019;28;20365;-73
2022/06/04 13:40:24;;;;;;;0.00;0.00;;;23.80;51.10;;;;;;5067011;28;20047;-73
2022/06/04 13:42:54;;;;;;;0.32;0.20;;;23.80;51.10;;;;;;5055092;28;20024;-74
2022/06/04 13:45:20;;;;;;;0.05;0.05;;;23.60;51.10;;;;;;5072842;28;20056;-73
2022/06/04 13:47:59;;;;;;;0.68;0.47;;;23.60;51.80;;;;;;5067692;28;20056;-73